Portada
METAR-TAF:

METAR-TAF

Aeroports :

Biak, Indonèsia

latitud: 01-11S, longitud: 136-07E, altitud: 11 m

METAR: manca

Hora: 04:47 (21:47 UTC)

Pronòstic

L'informe es va fer fa 3 hores i 47 minuts, a les 18:00 UTC
Pronòstic vàlid del 19 a les 18 UTC al 21 a les 00 UTC
Vent 5 kt del Nord/Nord-Est
Visibilitat 10 km o més
Núvols disperses a una alçada de 1800 ft
Temporalment
l' 19 a les 18 UTC al 19 a les 22 UTC
Visibilitat: 5000 m
pluja
Evolucionant progressivament
l' 20 a les 02 UTC al 20 a les 04 UTC
Vent 8 kt del Est

TAF: WABB 191800Z 1918/2100 02005KT 9999 SCT018 TEMPO 1918/1922 5000 RA BECMG 2002/2004 09008KT

Observacions i pronòstics meteorològics de més de 4000 aeroports (METAR i TAF).

Les estacions disponibles són els punts grocs i vermells al mapa.

Posi el ratolí al punt desitjat per veure el nom de l'estació.

Feu clic per veure les observacions i els pronòstics meteorològics.

Per canviar el mapa: feu clic els botons verds amb una creu de color negre per apropar; al botó verd amb un guió per allunyar la imatge; o en les fletxes verdes per a mapes adjacents.


METAR-TAF: